createdAt,value
2023-10-10T00:01:43.805Z,99.20
2023-10-10T00:04:45.454Z,99.20
2023-10-10T00:07:47.242Z,99.20
2023-10-10T00:10:49.087Z,99.20
2023-10-10T00:13:53.162Z,99.20
2023-10-10T00:16:54.769Z,99.10
2023-10-10T00:19:56.363Z,99.10
2023-10-10T00:22:57.903Z,99.10
2023-10-10T00:25:59.588Z,99.10
2023-10-10T00:29:01.168Z,99.10
2023-10-10T00:32:02.794Z,99.10
2023-10-10T00:35:04.349Z,99.10
2023-10-10T00:38:05.918Z,99.10
2023-10-10T00:41:07.523Z,99.00
2023-10-10T00:44:09.083Z,99.00
2023-10-10T00:47:10.755Z,99.00
2023-10-10T00:50:12.334Z,99.00
2023-10-10T00:53:13.925Z,99.00
2023-10-10T00:56:15.751Z,99.00
2023-10-10T00:59:17.951Z,98.90
2023-10-10T01:02:19.853Z,98.90
2023-10-10T01:05:21.488Z,98.90
2023-10-10T01:08:23.086Z,98.90
2023-10-10T01:11:24.704Z,98.90
2023-10-10T01:14:26.388Z,98.80
2023-10-10T01:17:28.076Z,98.80
2023-10-10T01:20:29.860Z,98.80
2023-10-10T01:23:31.422Z,98.80
2023-10-10T01:26:33.041Z,98.80
2023-10-10T01:29:34.712Z,98.80
2023-10-10T01:32:36.368Z,98.70
2023-10-10T01:35:38.062Z,98.70
2023-10-10T01:38:39.645Z,98.70
2023-10-10T01:41:41.406Z,98.70
2023-10-10T01:44:43.066Z,98.70
2023-10-10T01:47:44.908Z,98.70
2023-10-10T01:50:46.518Z,98.70
2023-10-10T01:53:48.053Z,98.70
2023-10-10T01:56:49.556Z,98.70
2023-10-10T01:59:51.193Z,98.70
2023-10-10T02:02:55.372Z,98.70
2023-10-10T02:05:56.985Z,98.60
2023-10-10T02:08:58.523Z,98.60
2023-10-10T02:12:00.055Z,98.60
2023-10-10T02:15:01.611Z,98.50
2023-10-10T02:18:03.317Z,98.50
2023-10-10T02:21:04.892Z,98.50
2023-10-10T02:24:06.441Z,98.50
2023-10-10T02:27:07.955Z,98.50
2023-10-10T02:30:09.504Z,98.50
2023-10-10T02:33:11.042Z,98.40
2023-10-10T02:36:12.643Z,98.40
2023-10-10T02:39:14.333Z,98.40
2023-10-10T02:42:15.983Z,98.30
2023-10-10T02:45:17.520Z,98.30
2023-10-10T02:48:19.052Z,98.30
2023-10-10T02:51:20.615Z,98.30
2023-10-10T02:54:22.129Z,98.30
2023-10-10T02:57:23.672Z,98.30
2023-10-10T03:00:27.524Z,98.20
2023-10-10T03:03:29.362Z,98.20
2023-10-10T03:06:31.052Z,98.20
2023-10-10T03:09:32.596Z,98.20
2023-10-10T03:12:34.106Z,98.10
2023-10-10T03:15:35.638Z,98.10
2023-10-10T03:18:37.200Z,98.10
2023-10-10T03:21:38.705Z,98.00
2023-10-10T03:24:40.261Z,98.00
2023-10-10T03:27:41.763Z,98.00
2023-10-10T03:30:43.297Z,98.00
2023-10-10T03:33:44.816Z,98.00
2023-10-10T03:36:46.401Z,97.90
2023-10-10T03:39:47.946Z,97.90
2023-10-10T03:42:51.582Z,97.90
2023-10-10T03:45:53.136Z,97.90
2023-10-10T03:48:54.676Z,97.90
2023-10-10T03:51:56.288Z,97.90
2023-10-10T03:54:57.915Z,97.90
2023-10-10T03:57:59.506Z,97.90
2023-10-10T04:01:01.020Z,97.80
2023-10-10T04:04:02.677Z,97.80
2023-10-10T04:07:04.272Z,97.80
2023-10-10T04:10:05.796Z,97.80
2023-10-10T04:13:07.336Z,97.80
2023-10-10T04:16:08.921Z,97.80
2023-10-10T04:19:10.504Z,97.80
2023-10-10T04:22:12.012Z,97.70
2023-10-10T04:25:13.548Z,97.70
2023-10-10T04:28:15.091Z,97.70
2023-10-10T04:31:16.697Z,97.70
2023-10-10T04:34:20.488Z,97.70
2023-10-10T04:37:22.016Z,97.60
2023-10-10T04:40:23.616Z,97.60
2023-10-10T04:43:25.159Z,97.60
2023-10-10T04:46:26.711Z,97.60
2023-10-10T04:49:28.278Z,97.60
2023-10-10T04:52:29.793Z,97.60
2023-10-10T04:55:31.332Z,97.60
2023-10-10T04:58:32.837Z,97.60
2023-10-10T05:01:34.443Z,97.50
2023-10-10T05:04:36.329Z,97.50
2023-10-10T05:07:37.874Z,97.50
2023-10-10T05:10:39.475Z,97.50
2023-10-10T05:13:40.982Z,97.50
2023-10-10T05:16:42.525Z,97.50
2023-10-10T05:19:44.091Z,97.40
2023-10-10T05:22:45.635Z,97.50
2023-10-10T05:25:47.141Z,97.40
2023-10-10T05:28:48.751Z,97.40
2023-10-10T05:31:50.305Z,97.40
2023-10-10T05:34:51.849Z,97.70
2023-10-10T05:37:53.394Z,97.40
2023-10-10T05:40:55.093Z,97.40
2023-10-10T05:43:56.802Z,97.40
2023-10-10T05:46:58.353Z,97.40
2023-10-10T05:49:59.871Z,97.60
2023-10-10T05:53:01.400Z,97.60
2023-10-10T05:56:03.010Z,97.80
2023-10-10T05:59:05.100Z,98.20
2023-10-10T06:02:06.698Z,97.90
2023-10-10T06:05:08.321Z,97.90
2023-10-10T06:08:09.889Z,97.90
2023-10-10T06:11:11.471Z,98.00
2023-10-10T06:14:13.091Z,98.30
2023-10-10T06:17:15.067Z,98.20
2023-10-10T06:20:16.699Z,97.10
2023-10-10T06:23:18.301Z,96.70
2023-10-10T06:26:19.885Z,96.40
2023-10-10T06:29:21.467Z,95.90
2023-10-10T06:32:23.098Z,96.30
2023-10-10T06:35:24.699Z,95.70
2023-10-10T06:38:26.316Z,95.00
2023-10-10T06:41:27.886Z,94.90
2023-10-10T06:44:29.456Z,94.60
2023-10-10T06:47:31.044Z,94.40
2023-10-10T06:50:32.698Z,94.30
2023-10-10T06:53:34.293Z,95.00
2023-10-10T06:56:35.908Z,95.40
2023-10-10T06:59:37.515Z,94.90
2023-10-10T07:02:39.128Z,95.10
2023-10-10T07:05:41.099Z,95.60
2023-10-10T07:08:42.708Z,95.00
2023-10-10T07:11:44.294Z,94.50
2023-10-10T07:14:45.916Z,94.20
2023-10-10T07:17:47.625Z,94.20
2023-10-10T07:20:49.555Z,94.00
2023-10-10T07:23:51.311Z,94.00
2023-10-10T07:26:52.948Z,93.90
2023-10-10T07:29:54.475Z,94.70
2023-10-10T07:32:56.225Z,94.60
2023-10-10T07:35:57.872Z,95.00
2023-10-10T07:38:59.453Z,94.90
2023-10-10T07:42:01.025Z,94.50
2023-10-10T07:45:02.566Z,94.20
2023-10-10T07:48:04.272Z,93.90
2023-10-10T07:51:05.892Z,93.90
2023-10-10T07:54:07.421Z,93.90
2023-10-10T07:57:08.978Z,94.50
2023-10-10T08:00:10.669Z,94.20
2023-10-10T08:03:12.347Z,94.00
2023-10-10T08:06:13.947Z,94.10
2023-10-10T08:09:15.459Z,93.80
2023-10-10T08:12:17.041Z,93.90
2023-10-10T08:15:18.552Z,93.80
2023-10-10T08:18:20.236Z,94.10
2023-10-10T08:21:21.842Z,93.90
2023-10-10T08:24:23.412Z,94.30
2023-10-10T08:27:24.963Z,94.00
2023-10-10T08:30:26.493Z,93.60
2023-10-10T08:33:28.100Z,93.80
2023-10-10T08:36:29.777Z,93.70
2023-10-10T08:39:31.349Z,93.60
2023-10-10T08:42:35.657Z,93.50
2023-10-10T08:45:37.161Z,93.60
2023-10-10T08:48:38.774Z,94.00
2023-10-10T08:51:40.458Z,94.00
2023-10-10T08:54:44.687Z,94.00
2023-10-10T08:57:46.364Z,94.00
2023-10-10T09:14:48.607Z,94.10
2023-10-10T09:17:50.391Z,95.00
2023-10-10T09:20:52.148Z,94.60
2023-10-10T09:23:53.841Z,94.30
2023-10-10T09:26:55.411Z,94.00
2023-10-10T09:29:56.937Z,93.80
2023-10-10T09:32:58.639Z,93.90
2023-10-10T09:36:02.585Z,94.50
2023-10-10T09:39:04.144Z,94.70
2023-10-10T09:42:05.685Z,94.40
2023-10-10T09:45:07.328Z,94.30
2023-10-10T09:48:09.043Z,94.40
2023-10-10T09:51:10.659Z,94.50
2023-10-10T09:54:14.628Z,95.00
2023-10-10T09:57:19.022Z,94.70
2023-10-10T10:00:27.592Z,97.80
2023-10-10T10:03:29.991Z,96.40
2023-10-10T10:06:31.682Z,96.20
2023-10-10T10:09:33.254Z,96.30
2023-10-10T10:12:34.773Z,96.40
2023-10-10T10:15:36.312Z,96.50
2023-10-10T10:18:37.884Z,96.60
2023-10-10T10:21:39.453Z,96.60
2023-10-10T10:24:40.958Z,96.60
2023-10-10T10:27:42.486Z,96.50
2023-10-10T10:30:44.059Z,96.30
2023-10-10T10:33:45.621Z,96.20
2023-10-10T10:36:50.166Z,96.90
2023-10-10T10:39:53.934Z,97.10
2023-10-10T10:42:58.190Z,97.40
2023-10-10T10:46:02.439Z,97.50
2023-10-10T10:49:04.045Z,97.40
2023-10-10T10:52:05.611Z,97.50
2023-10-10T10:55:07.121Z,97.50
2023-10-10T10:58:08.671Z,97.40
2023-10-10T11:01:10.233Z,97.60
2023-10-10T11:04:11.852Z,97.60
2023-10-10T11:07:13.404Z,97.50
2023-10-10T11:10:14.927Z,97.40
2023-10-10T11:13:16.601Z,97.30
2023-10-10T11:16:18.177Z,97.20
2023-10-10T11:19:19.749Z,97.20
2023-10-10T11:22:21.461Z,97.10
2023-10-10T11:25:23.068Z,97.20
2023-10-10T11:28:24.802Z,97.40
2023-10-10T11:31:26.529Z,97.70
2023-10-10T11:34:30.273Z,97.40
2023-10-10T11:37:31.788Z,97.30
2023-10-10T11:40:33.364Z,97.50
2023-10-10T11:43:35.928Z,97.40
2023-10-10T11:46:37.701Z,97.30
2023-10-10T11:49:39.279Z,97.40
2023-10-10T11:52:40.805Z,97.40
2023-10-10T11:55:42.359Z,97.30
2023-10-10T11:58:43.927Z,97.30
2023-10-10T12:01:45.481Z,97.20
2023-10-10T12:04:47.040Z,97.20
2023-10-10T12:07:48.546Z,97.30
2023-10-10T12:10:50.071Z,97.30
2023-10-10T12:13:52.062Z,97.10
2023-10-10T12:16:53.835Z,97.20
2023-10-10T12:19:55.412Z,97.30
2023-10-10T12:22:56.952Z,97.60
2023-10-10T12:25:58.506Z,97.50
2023-10-10T12:29:00.246Z,97.40
2023-10-10T12:32:01.825Z,97.40
2023-10-10T12:35:03.360Z,97.40
2023-10-10T12:38:04.917Z,97.40
2023-10-10T12:41:06.452Z,97.40
2023-10-10T12:44:08.019Z,97.40
2023-10-10T12:47:09.532Z,97.40
2023-10-10T12:50:11.089Z,97.40
2023-10-10T12:53:12.662Z,97.30
2023-10-10T12:56:14.203Z,97.30
2023-10-10T13:02:20.731Z,97.20
2023-10-10T13:05:22.384Z,97.10
2023-10-10T13:08:23.990Z,97.10
2023-10-10T13:11:25.753Z,97.00
2023-10-10T13:14:27.361Z,97.00
2023-10-10T13:17:31.770Z,96.90
2023-10-10T13:20:33.671Z,96.90
2023-10-10T13:23:37.437Z,96.90
2023-10-10T13:26:39.075Z,96.80
2023-10-10T13:29:40.692Z,96.80
2023-10-10T13:32:42.332Z,96.80
2023-10-10T13:35:48.469Z,96.80
2023-10-10T13:38:50.137Z,96.80
2023-10-10T13:41:51.761Z,96.80
2023-10-10T13:44:53.325Z,96.90
2023-10-10T13:47:56.687Z,96.90
2023-10-10T13:51:02.870Z,97.00
2023-10-10T13:54:04.446Z,97.00
2023-10-10T13:57:06.031Z,97.10
2023-10-10T14:00:07.633Z,97.00
2023-10-10T14:03:09.370Z,97.10
2023-10-10T14:06:11.010Z,97.10
2023-10-10T14:09:12.553Z,97.10
2023-10-10T14:12:14.139Z,97.20
2023-10-10T14:15:15.692Z,97.20
2023-10-10T14:18:17.365Z,97.20
2023-10-10T14:21:18.949Z,97.20
2023-10-10T14:24:20.505Z,97.20
2023-10-10T14:27:22.037Z,97.20
2023-10-10T14:30:23.558Z,97.20
2023-10-10T14:33:25.169Z,97.20
2023-10-10T14:36:26.805Z,97.20
2023-10-10T14:39:28.345Z,97.20
2023-10-10T14:42:29.890Z,97.20
2023-10-10T14:45:31.399Z,97.20
2023-10-10T14:48:33.059Z,97.30
2023-10-10T14:51:34.650Z,97.60
2023-10-10T14:54:36.176Z,97.20
2023-10-10T14:57:37.824Z,97.30
2023-10-10T15:00:40.640Z,97.30
2023-10-10T15:03:44.540Z,97.50
2023-10-10T15:06:46.333Z,97.40
2023-10-10T15:09:47.864Z,97.40
2023-10-10T15:12:49.517Z,97.60
2023-10-10T15:15:51.055Z,97.50
2023-10-10T15:18:52.705Z,97.50
2023-10-10T15:21:54.293Z,97.60
2023-10-10T15:24:55.867Z,97.60
2023-10-10T15:27:57.423Z,97.70
2023-10-10T15:30:59.090Z,97.80
2023-10-10T15:34:00.635Z,97.90
2023-10-10T15:37:02.277Z,97.90
2023-10-10T15:40:03.797Z,98.00
2023-10-10T15:43:08.804Z,98.00
2023-10-10T15:46:12.498Z,97.90
2023-10-10T15:49:29.678Z,97.90
2023-10-10T15:52:35.093Z,97.90
2023-10-10T15:55:36.694Z,97.80
2023-10-10T15:58:41.196Z,97.80
2023-10-10T16:01:43.044Z,97.70
2023-10-10T16:04:44.603Z,97.60
2023-10-10T16:07:50.448Z,97.60
2023-10-10T16:11:00.956Z,97.50
2023-10-10T16:14:02.500Z,97.40
2023-10-10T16:17:04.187Z,97.40
2023-10-10T16:20:05.932Z,97.30
2023-10-10T16:23:07.462Z,97.30
2023-10-10T16:26:09.021Z,97.30
2023-10-10T16:29:10.566Z,97.40
2023-10-10T16:32:12.132Z,97.40
2023-10-10T16:35:13.663Z,97.40
2023-10-10T16:38:15.197Z,97.40
2023-10-10T16:41:16.711Z,97.50
2023-10-10T16:44:18.289Z,97.50
2023-10-10T16:47:19.821Z,97.50
2023-10-10T16:50:21.378Z,97.60
2023-10-10T16:53:22.940Z,97.60
2023-10-10T16:56:24.495Z,97.60
2023-10-10T16:59:26.147Z,97.70
2023-10-10T17:02:27.773Z,97.70
2023-10-10T17:05:29.386Z,97.70
2023-10-10T17:08:31.012Z,97.70
2023-10-10T17:11:32.595Z,97.70
2023-10-10T17:14:34.435Z,97.60
2023-10-10T17:17:36.048Z,97.60
2023-10-10T17:20:37.675Z,97.40
2023-10-10T17:23:39.270Z,97.30
2023-10-10T17:26:40.894Z,97.20
2023-10-10T17:29:46.035Z,97.10
2023-10-10T17:32:47.674Z,97.00
2023-10-10T17:35:49.356Z,97.00
2023-10-10T17:38:50.952Z,97.00
2023-10-10T17:41:52.528Z,97.10
2023-10-10T17:44:54.185Z,96.90
2023-10-10T17:47:55.833Z,97.00
2023-10-10T17:50:57.443Z,97.20
2023-10-10T17:53:59.047Z,97.30
2023-10-10T17:57:00.780Z,97.10
2023-10-10T18:00:02.356Z,97.00
2023-10-10T18:03:04.178Z,97.20
2023-10-10T18:06:05.853Z,97.20
2023-10-10T18:09:07.465Z,97.30
2023-10-10T18:12:09.122Z,97.40
2023-10-10T18:15:10.737Z,97.50
2023-10-10T18:18:12.360Z,97.30
2023-10-10T18:21:13.979Z,97.50
2023-10-10T18:24:15.494Z,97.50
2023-10-10T18:27:17.073Z,97.80
2023-10-10T18:30:18.663Z,97.70
2023-10-10T18:33:20.346Z,97.90
2023-10-10T18:36:21.947Z,97.90
2023-10-10T18:39:23.505Z,98.00
2023-10-10T18:42:25.038Z,97.90
2023-10-10T18:45:26.567Z,98.10
2023-10-10T18:48:28.242Z,98.30
2023-10-10T18:51:29.821Z,98.30
2023-10-10T18:54:31.359Z,98.30
2023-10-10T18:57:33.050Z,98.20
2023-10-10T19:00:34.595Z,98.20
2023-10-10T19:03:36.263Z,98.10
2023-10-10T19:06:37.959Z,98.40
2023-10-10T19:09:39.517Z,98.90
2023-10-10T19:12:41.088Z,99.00
2023-10-10T19:15:42.614Z,99.10
2023-10-10T19:18:44.216Z,99.30
2023-10-10T19:21:45.804Z,99.50
2023-10-10T19:24:47.357Z,99.60
2023-10-10T19:27:48.887Z,99.90
2023-10-10T19:30:50.459Z,99.90
2023-10-10T19:33:52.201Z,99.90
2023-10-10T19:36:53.954Z,99.90
2023-10-10T19:39:55.462Z,99.90
2023-10-10T19:42:56.999Z,99.90
2023-10-10T19:45:58.524Z,99.90
2023-10-10T19:49:00.312Z,99.90
2023-10-10T19:52:01.861Z,99.90
2023-10-10T19:55:17.056Z,99.90
2023-10-10T19:58:23.258Z,99.90
2023-10-10T20:01:24.879Z,99.90
2023-10-10T20:04:26.802Z,99.90
2023-10-10T20:07:28.423Z,99.90
2023-10-10T20:10:29.982Z,99.90
2023-10-10T20:13:31.538Z,99.90
2023-10-10T20:16:33.115Z,99.90
2023-10-10T20:19:34.711Z,99.90
2023-10-10T20:22:36.241Z,99.90
2023-10-10T20:25:37.843Z,99.90
2023-10-10T20:28:39.382Z,99.90
2023-10-10T20:31:40.951Z,99.90
2023-10-10T20:34:42.481Z,99.90
2023-10-10T20:37:44.116Z,99.90
2023-10-10T20:40:45.651Z,99.90
2023-10-10T20:43:47.180Z,99.90
2023-10-10T20:46:48.860Z,99.90
2023-10-10T20:49:50.438Z,99.90
2023-10-10T20:52:51.974Z,99.90
2023-10-10T20:55:53.622Z,99.90
2023-10-10T20:58:55.210Z,99.90
2023-10-10T21:01:56.753Z,99.90
2023-10-10T21:04:58.294Z,99.90
2023-10-10T21:07:59.839Z,99.90
2023-10-10T21:11:01.506Z,99.90
2023-10-10T21:14:03.044Z,99.90
2023-10-10T21:17:04.680Z,99.90
2023-10-10T21:20:06.225Z,99.90
2023-10-10T21:23:07.778Z,99.90
2023-10-10T21:26:09.359Z,99.90
2023-10-10T21:29:10.922Z,99.90
2023-10-10T21:32:12.463Z,99.90
2023-10-10T21:35:14.004Z,99.90
2023-10-10T21:38:15.552Z,99.90
2023-10-10T21:41:17.093Z,99.90
2023-10-10T21:44:18.634Z,99.90
2023-10-10T21:47:20.161Z,99.90
2023-10-10T21:50:21.701Z,99.90
2023-10-10T21:53:23.254Z,99.90
2023-10-10T21:56:24.784Z,99.90
2023-10-10T21:59:26.320Z,99.90
2023-10-10T22:02:27.898Z,99.90
2023-10-10T22:05:29.466Z,99.90
2023-10-10T22:08:31.054Z,99.90
2023-10-10T22:11:32.668Z,99.90
2023-10-10T22:14:34.238Z,99.90
2023-10-10T22:17:35.894Z,99.90
2023-10-10T22:20:37.654Z,99.90
2023-10-10T22:23:39.334Z,99.90
2023-10-10T22:26:40.923Z,99.90
2023-10-10T22:29:42.489Z,99.90
2023-10-10T22:32:44.221Z,99.90
2023-10-10T22:35:45.810Z,99.90
2023-10-10T22:38:47.563Z,99.90
2023-10-10T22:41:49.163Z,99.90
2023-10-10T22:44:50.754Z,99.90
2023-10-10T22:47:52.440Z,99.90
2023-10-10T22:50:54.319Z,99.90
2023-10-10T22:53:56.221Z,99.90
2023-10-10T22:56:57.830Z,99.90
2023-10-10T22:59:59.409Z,99.90
2023-10-10T23:03:01.084Z,99.90
2023-10-10T23:06:02.654Z,99.90
2023-10-10T23:09:04.334Z,99.90
2023-10-10T23:12:05.961Z,99.90
2023-10-10T23:15:07.642Z,99.90
2023-10-10T23:18:09.285Z,99.90
2023-10-10T23:21:10.912Z,99.90
2023-10-10T23:24:12.514Z,99.90
2023-10-10T23:27:14.066Z,99.90
2023-10-10T23:30:15.747Z,99.90
2023-10-10T23:33:17.622Z,99.90
2023-10-10T23:36:19.383Z,99.90
2023-10-10T23:39:20.958Z,99.90
2023-10-10T23:42:22.482Z,99.90
2023-10-10T23:45:24.233Z,99.90
2023-10-10T23:48:26.032Z,99.90
2023-10-10T23:51:27.656Z,99.90
2023-10-10T23:54:29.238Z,99.90
2023-10-10T23:57:30.790Z,99.90
